sensor_id;sensor_type;location;lat;lon;timestamp;pressure;altitude;pressure_sealevel;temperature;humidity
70370;BME280;57790;51.356;-2.906;2023-12-20T00:00:47;102602.75;;;9.48;100.00
70370;BME280;57790;51.356;-2.906;2023-12-20T00:03:47;102600.97;;;9.49;100.00
70370;BME280;57790;51.356;-2.906;2023-12-20T00:06:48;102609.84;;;9.48;100.00
70370;BME280;57790;51.356;-2.906;2023-12-20T00:09:48;102606.03;;;9.52;100.00
70370;BME280;57790;51.356;-2.906;2023-12-20T00:12:49;102600.97;;;9.49;100.00
70370;BME280;57790;51.356;-2.906;2023-12-20T00:15:49;102590.16;;;9.52;100.00
70370;BME280;57790;51.356;-2.906;2023-12-20T00:18:49;102585.91;;;9.49;100.00
70370;BME280;57790;51.356;-2.906;2023-12-20T00:21:50;102583.38;;;9.48;100.00
70370;BME280;57790;51.356;-2.906;2023-12-20T00:24:50;102583.72;;;9.43;100.00
70370;BME280;57790;51.356;-2.906;2023-12-20T00:27:50;102576.41;;;9.47;100.00
70370;BME280;57790;51.356;-2.906;2023-12-20T00:30:51;102579.91;;;9.47;100.00
70370;BME280;57790;51.356;-2.906;2023-12-20T00:33:51;102577.97;;;9.49;100.00
70370;BME280;57790;51.356;-2.906;2023-12-20T00:36:51;102571.22;;;9.45;100.00
70370;BME280;57790;51.356;-2.906;2023-12-20T00:39:52;102566.16;;;9.42;100.00
70370;BME280;57790;51.356;-2.906;2023-12-20T00:42:52;102560.75;;;9.44;100.00
70370;BME280;57790;51.356;-2.906;2023-12-20T00:45:53;102565.94;;;9.45;100.00
70370;BME280;57790;51.356;-2.906;2023-12-20T00:48:53;102568.47;;;9.47;100.00
70370;BME280;57790;51.356;-2.906;2023-12-20T00:51:53;102585.06;;;9.49;100.00
70370;BME280;57790;51.356;-2.906;2023-12-20T00:54:54;102592.63;;;9.42;100.00
70370;BME280;57790;51.356;-2.906;2023-12-20T00:57:54;102589.25;;;9.40;100.00
70370;BME280;57790;51.356;-2.906;2023-12-20T01:00:55;102586.38;;;9.43;100.00
70370;BME280;57790;51.356;-2.906;2023-12-20T01:03:55;102597.25;;;9.39;100.00
70370;BME280;57790;51.356;-2.906;2023-12-20T01:06:55;102603.50;;;9.38;100.00
70370;BME280;57790;51.356;-2.906;2023-12-20T01:09:56;102604.38;;;9.38;100.00
70370;BME280;57790;51.356;-2.906;2023-12-20T01:12:56;102617.81;;;9.35;100.00
70370;BME280;57790;51.356;-2.906;2023-12-20T01:15:57;102616.47;;;9.30;100.00
70370;BME280;57790;51.356;-2.906;2023-12-20T01:18:57;102608.31;;;9.33;100.00
70370;BME280;57790;51.356;-2.906;2023-12-20T01:21:57;102598.66;;;9.32;100.00
70370;BME280;57790;51.356;-2.906;2023-12-20T01:24:58;102592.31;;;9.34;100.00
70370;BME280;57790;51.356;-2.906;2023-12-20T01:27:58;102589.78;;;9.33;100.00
70370;BME280;57790;51.356;-2.906;2023-12-20T01:30:58;102591.69;;;9.31;100.00
70370;BME280;57790;51.356;-2.906;2023-12-20T01:33:59;102590.09;;;9.28;100.00
70370;BME280;57790;51.356;-2.906;2023-12-20T01:36:59;102593.50;;;9.30;100.00
70370;BME280;57790;51.356;-2.906;2023-12-20T01:40:00;102585.22;;;9.35;100.00
70370;BME280;57790;51.356;-2.906;2023-12-20T01:43:02;102579.91;;;9.35;100.00
70370;BME280;57790;51.356;-2.906;2023-12-20T01:46:02;102576.88;;;9.28;100.00
70370;BME280;57790;51.356;-2.906;2023-12-20T01:49:03;102567.66;;;9.34;100.00
70370;BME280;57790;51.356;-2.906;2023-12-20T01:52:04;102590.28;;;9.38;100.00
70370;BME280;57790;51.356;-2.906;2023-12-20T01:55:04;102595.47;;;9.39;100.00
70370;BME280;57790;51.356;-2.906;2023-12-20T01:58:14;102591.00;;;9.40;100.00
70370;BME280;57790;51.356;-2.906;2023-12-20T02:01:16;102589.44;;;9.37;100.00
70370;BME280;57790;51.356;-2.906;2023-12-20T02:04:16;102594.63;;;9.39;100.00
70370;BME280;57790;51.356;-2.906;2023-12-20T02:07:18;102591.00;;;9.40;100.00
70370;BME280;57790;51.356;-2.906;2023-12-20T02:10:18;102587.84;;;9.35;100.00
70370;BME280;57790;51.356;-2.906;2023-12-20T02:13:19;102579.81;;;9.36;100.00
70370;BME280;57790;51.356;-2.906;2023-12-20T02:16:19;102576.09;;;9.39;100.00
70370;BME280;57790;51.356;-2.906;2023-12-20T02:19:19;102567.31;;;9.38;100.00
70370;BME280;57790;51.356;-2.906;2023-12-20T02:22:20;102561.28;;;9.36;100.00
70370;BME280;57790;51.356;-2.906;2023-12-20T02:25:21;102561.72;;;9.30;100.00
70370;BME280;57790;51.356;-2.906;2023-12-20T02:28:21;102562.81;;;9.28;100.00
70370;BME280;57790;51.356;-2.906;2023-12-20T02:31:23;102561.63;;;9.32;100.00
70370;BME280;57790;51.356;-2.906;2023-12-20T02:34:23;102562.69;;;9.29;100.00
70370;BME280;57790;51.356;-2.906;2023-12-20T02:37:24;102563.41;;;9.31;100.00
70370;BME280;57790;51.356;-2.906;2023-12-20T02:40:24;102565.09;;;9.32;100.00
70370;BME280;57790;51.356;-2.906;2023-12-20T02:43:24;102561.63;;;9.32;100.00
70370;BME280;57790;51.356;-2.906;2023-12-20T02:46:25;102555.69;;;9.28;100.00
70370;BME280;57790;51.356;-2.906;2023-12-20T02:49:25;102561.09;;;9.27;100.00
70370;BME280;57790;51.356;-2.906;2023-12-20T02:52:27;102557.63;;;9.26;100.00
70370;BME280;57790;51.356;-2.906;2023-12-20T02:55:27;102566.41;;;9.27;100.00
70370;BME280;57790;51.356;-2.906;2023-12-20T02:58:28;102559.94;;;9.31;100.00
70370;BME280;57790;51.356;-2.906;2023-12-20T03:01:29;102559.81;;;9.32;100.00
70370;BME280;57790;51.356;-2.906;2023-12-20T03:04:29;102556.94;;;9.35;100.00
70370;BME280;57790;51.356;-2.906;2023-12-20T03:07:30;102550.19;;;9.31;100.00
70370;BME280;57790;51.356;-2.906;2023-12-20T03:10:30;102556.22;;;9.33;100.00
70370;BME280;57790;51.356;-2.906;2023-12-20T03:13:30;102549.13;;;9.34;100.00
70370;BME280;57790;51.356;-2.906;2023-12-20T03:16:31;102557.78;;;9.36;100.00
70370;BME280;57790;51.356;-2.906;2023-12-20T03:19:33;102544.66;;;9.34;100.00
70370;BME280;57790;51.356;-2.906;2023-12-20T03:22:33;102544.91;;;9.31;100.00
70370;BME280;57790;51.356;-2.906;2023-12-20T03:25:34;102543.94;;;9.32;100.00
70370;BME280;57790;51.356;-2.906;2023-12-20T03:28:36;102551.88;;;9.32;100.00
70370;BME280;57790;51.356;-2.906;2023-12-20T03:31:36;102557.06;;;9.34;100.00
70370;BME280;57790;51.356;-2.906;2023-12-20T03:34:36;102553.78;;;9.30;100.00
70370;BME280;57790;51.356;-2.906;2023-12-20T03:37:37;102556.09;;;9.35;100.00
70370;BME280;57790;51.356;-2.906;2023-12-20T03:40:37;102543.72;;;9.35;100.00
70370;BME280;57790;51.356;-2.906;2023-12-20T03:43:37;102539.50;;;9.33;100.00
70370;BME280;57790;51.356;-2.906;2023-12-20T03:46:38;102530.38;;;9.37;100.00
70370;BME280;57790;51.356;-2.906;2023-12-20T03:49:38;102529.63;;;9.35;100.00
70370;BME280;57790;51.356;-2.906;2023-12-20T03:52:39;102526.75;;;9.38;100.00
70370;BME280;57790;51.356;-2.906;2023-12-20T03:55:39;102525.91;;;9.37;100.00
70370;BME280;57790;51.356;-2.906;2023-12-20T03:58:39;102517.97;;;9.37;100.00
70370;BME280;57790;51.356;-2.906;2023-12-20T04:01:43;102524.13;;;9.38;100.00
70370;BME280;57790;51.356;-2.906;2023-12-20T04:04:44;102530.06;;;9.41;100.00
70370;BME280;57790;51.356;-2.906;2023-12-20T04:07:45;102533.53;;;9.42;100.00
70370;BME280;57790;51.356;-2.906;2023-12-20T04:10:45;102529.94;;;9.43;100.00
70370;BME280;57790;51.356;-2.906;2023-12-20T04:13:46;102521.03;;;9.44;100.00
70370;BME280;57790;51.356;-2.906;2023-12-20T04:16:46;102513.94;;;9.44;100.00
70370;BME280;57790;51.356;-2.906;2023-12-20T04:19:46;102512.25;;;9.43;100.00
70370;BME280;57790;51.356;-2.906;2023-12-20T04:22:47;102502.06;;;9.50;100.00
70370;BME280;57790;51.356;-2.906;2023-12-20T04:25:47;102502.28;;;9.47;100.00
70370;BME280;57790;51.356;-2.906;2023-12-20T04:28:48;102505.66;;;9.49;100.00
70370;BME280;57790;51.356;-2.906;2023-12-20T04:31:48;102503.97;;;9.48;100.00
70370;BME280;57790;51.356;-2.906;2023-12-20T04:34:50;102506.38;;;9.51;100.00
70370;BME280;57790;51.356;-2.906;2023-12-20T04:37:50;102503.63;;;9.52;100.00
70370;BME280;57790;51.356;-2.906;2023-12-20T04:40:50;102503.50;;;9.54;100.00
70370;BME280;57790;51.356;-2.906;2023-12-20T04:43:51;102507.13;;;9.53;100.00
70370;BME280;57790;51.356;-2.906;2023-12-20T04:46:51;102510.59;;;9.53;100.00
70370;BME280;57790;51.356;-2.906;2023-12-20T04:49:52;102500.97;;;9.52;100.00
70370;BME280;57790;51.356;-2.906;2023-12-20T04:52:52;102509.50;;;9.45;100.00
70370;BME280;57790;51.356;-2.906;2023-12-20T04:55:52;102515.91;;;9.53;100.00
70370;BME280;57790;51.356;-2.906;2023-12-20T04:58:53;102519.41;;;9.54;100.00
70370;BME280;57790;51.356;-2.906;2023-12-20T05:01:54;102508.81;;;9.54;100.00
70370;BME280;57790;51.356;-2.906;2023-12-20T05:04:54;102507.22;;;9.51;100.00
70370;BME280;57790;51.356;-2.906;2023-12-20T05:07:54;102505.00;;;9.58;100.00
70370;BME280;57790;51.356;-2.906;2023-12-20T05:10:55;102505.22;;;9.55;100.00
70370;BME280;57790;51.356;-2.906;2023-12-20T05:13:55;102490.91;;;9.58;100.00
70370;BME280;57790;51.356;-2.906;2023-12-20T05:16:56;102492.00;;;9.55;100.00
70370;BME280;57790;51.356;-2.906;2023-12-20T05:19:56;102495.91;;;9.49;100.00
70370;BME280;57790;51.356;-2.906;2023-12-20T05:22:57;102484.13;;;9.53;100.00
70370;BME280;57790;51.356;-2.906;2023-12-20T05:25:57;102492.06;;;9.53;100.00
70370;BME280;57790;51.356;-2.906;2023-12-20T05:28:59;102491.88;;;9.57;100.00
70370;BME280;57790;51.356;-2.906;2023-12-20T05:31:59;102479.69;;;9.54;100.00
70370;BME280;57790;51.356;-2.906;2023-12-20T05:34:59;102467.41;;;9.53;100.00
70370;BME280;57790;51.356;-2.906;2023-12-20T05:38:00;102465.41;;;9.57;100.00
70370;BME280;57790;51.356;-2.906;2023-12-20T05:41:00;102466.13;;;9.59;100.00
70370;BME280;57790;51.356;-2.906;2023-12-20T05:44:01;102459.03;;;9.59;100.00
70370;BME280;57790;51.356;-2.906;2023-12-20T05:47:01;102465.16;;;9.60;100.00
70370;BME280;57790;51.356;-2.906;2023-12-20T05:50:02;102457.09;;;9.61;100.00
70370;BME280;57790;51.356;-2.906;2023-12-20T05:53:03;102468.66;;;9.60;100.00
70370;BME280;57790;51.356;-2.906;2023-12-20T05:56:03;102466.13;;;9.59;100.00
70370;BME280;57790;51.356;-2.906;2023-12-20T05:59:04;102464.56;;;9.56;100.00
70370;BME280;57790;51.356;-2.906;2023-12-20T06:02:04;102468.78;;;9.59;100.00
70370;BME280;57790;51.356;-2.906;2023-12-20T06:05:05;102478.53;;;9.58;100.00
70370;BME280;57790;51.356;-2.906;2023-12-20T06:08:06;102489.34;;;9.55;100.00
70370;BME280;57790;51.356;-2.906;2023-12-20T06:11:06;102483.69;;;9.60;100.00
70370;BME280;57790;51.356;-2.906;2023-12-20T06:14:06;102471.53;;;9.57;100.00
70370;BME280;57790;51.356;-2.906;2023-12-20T06:17:07;102484.88;;;9.56;100.00
70370;BME280;57790;51.356;-2.906;2023-12-20T06:20:08;102482.97;;;9.58;100.00
70370;BME280;57790;51.356;-2.906;2023-12-20T06:23:08;102484.03;;;9.55;100.00
70370;BME280;57790;51.356;-2.906;2023-12-20T06:26:09;102483.94;;;9.57;100.00
70370;BME280;57790;51.356;-2.906;2023-12-20T06:29:09;102481.06;;;9.60;100.00
70370;BME280;57790;51.356;-2.906;2023-12-20T06:32:10;102472.09;;;9.49;100.00
70370;BME280;57790;51.356;-2.906;2023-12-20T06:35:10;102481.41;;;9.55;100.00
70370;BME280;57790;51.356;-2.906;2023-12-20T06:38:11;102473.22;;;9.58;100.00
70370;BME280;57790;51.356;-2.906;2023-12-20T06:41:13;102481.28;;;9.57;100.00
70370;BME280;57790;51.356;-2.906;2023-12-20T06:44:14;102479.38;;;9.59;100.00
70370;BME280;57790;51.356;-2.906;2023-12-20T06:47:14;102487.06;;;9.62;100.00
70370;BME280;57790;51.356;-2.906;2023-12-20T06:50:15;102485.50;;;9.59;100.00
70370;BME280;57790;51.356;-2.906;2023-12-20T06:53:15;102483.59;;;9.61;100.00
70370;BME280;57790;51.356;-2.906;2023-12-20T06:56:17;102468.78;;;9.59;100.00
70370;BME280;57790;51.356;-2.906;2023-12-20T06:59:17;102474.44;;;9.65;100.00
70370;BME280;57790;51.356;-2.906;2023-12-20T07:02:17;102468.41;;;9.63;100.00
70370;BME280;57790;51.356;-2.906;2023-12-20T07:05:18;102448.44;;;9.59;100.00
70370;BME280;57790;51.356;-2.906;2023-12-20T07:08:20;102455.19;;;9.63;100.00
70370;BME280;57790;51.356;-2.906;2023-12-20T07:11:20;102459.63;;;9.63;100.00
70370;BME280;57790;51.356;-2.906;2023-12-20T07:14:21;102461.50;;;9.73;100.00
70370;BME280;57790;51.356;-2.906;2023-12-20T07:17:21;102468.47;;;9.74;100.00
70370;BME280;57790;51.356;-2.906;2023-12-20T07:20:22;102452.94;;;9.70;100.00
70370;BME280;57790;51.356;-2.906;2023-12-20T07:23:23;102440.03;;;9.65;100.00
70370;BME280;57790;51.356;-2.906;2023-12-20T07:26:26;102448.19;;;9.62;100.00
70370;BME280;57790;51.356;-2.906;2023-12-20T07:29:27;102460.38;;;9.65;100.00
70370;BME280;57790;51.356;-2.906;2023-12-20T07:32:27;102464.81;;;9.64;100.00
70370;BME280;57790;51.356;-2.906;2023-12-20T07:35:27;102462.06;;;9.66;100.00
70370;BME280;57790;51.356;-2.906;2023-12-20T07:38:28;102461.72;;;9.70;100.00
70370;BME280;57790;51.356;-2.906;2023-12-20T07:41:28;102467.88;;;9.71;100.00
70370;BME280;57790;51.356;-2.906;2023-12-20T07:44:29;102466.06;;;9.71;100.00
70370;BME280;57790;51.356;-2.906;2023-12-20T07:47:29;102450.28;;;9.70;100.00
70370;BME280;57790;51.356;-2.906;2023-12-20T07:50:29;102458.00;;;9.73;100.00
70370;BME280;57790;51.356;-2.906;2023-12-20T07:53:30;102458.97;;;9.72;100.00
70370;BME280;57790;51.356;-2.906;2023-12-20T07:56:30;102462.09;;;9.77;100.00
70370;BME280;57790;51.356;-2.906;2023-12-20T07:59:30;102464.88;;;9.75;100.00
70370;BME280;57790;51.356;-2.906;2023-12-20T08:02:31;102477.38;;;9.73;100.00
70370;BME280;57790;51.356;-2.906;2023-12-20T08:05:31;102480.63;;;9.77;100.00
70370;BME280;57790;51.356;-2.906;2023-12-20T08:08:32;102488.59;;;9.77;100.00
70370;BME280;57790;51.356;-2.906;2023-12-20T08:11:32;102482.94;;;9.81;100.00
70370;BME280;57790;51.356;-2.906;2023-12-20T08:14:32;102476.06;;;9.79;100.00
70370;BME280;57790;51.356;-2.906;2023-12-20T08:17:33;102477.75;;;9.80;100.00
70370;BME280;57790;51.356;-2.906;2023-12-20T08:20:33;102484.63;;;9.82;100.00
70370;BME280;57790;51.356;-2.906;2023-12-20T08:23:34;102485.81;;;9.78;100.00
70370;BME280;57790;51.356;-2.906;2023-12-20T08:26:35;102488.47;;;9.78;100.00
70370;BME280;57790;51.356;-2.906;2023-12-20T08:29:35;102471.38;;;9.82;100.00
70370;BME280;57790;51.356;-2.906;2023-12-20T08:32:36;102482.22;;;9.79;100.00
70370;BME280;57790;51.356;-2.906;2023-12-20T08:35:36;102487.28;;;9.82;100.00
70370;BME280;57790;51.356;-2.906;2023-12-20T08:38:37;102485.47;;;9.83;100.00
70370;BME280;57790;51.356;-2.906;2023-12-20T08:41:37;102501.88;;;9.88;100.00
70370;BME280;57790;51.356;-2.906;2023-12-20T08:44:38;102512.47;;;9.88;100.00
70370;BME280;57790;51.356;-2.906;2023-12-20T08:47:38;102518.84;;;9.86;100.00
70370;BME280;57790;51.356;-2.906;2023-12-20T08:50:38;102509.59;;;9.91;100.00
70370;BME280;57790;51.356;-2.906;2023-12-20T08:53:39;102504.19;;;9.93;100.00
70370;BME280;57790;51.356;-2.906;2023-12-20T08:56:39;102520.19;;;9.91;100.00
70370;BME280;57790;51.356;-2.906;2023-12-20T08:59:40;102507.56;;;9.95;100.00
70370;BME280;57790;51.356;-2.906;2023-12-20T09:02:41;102508.19;;;9.98;100.00
70370;BME280;57790;51.356;-2.906;2023-12-20T09:05:41;102484.44;;;9.97;100.00
70370;BME280;57790;51.356;-2.906;2023-12-20T09:08:41;102499.28;;;9.99;100.00
70370;BME280;57790;51.356;-2.906;2023-12-20T09:11:42;102493.22;;;9.97;100.00
70370;BME280;57790;51.356;-2.906;2023-12-20T09:14:42;102492.50;;;9.95;100.00
70370;BME280;57790;51.356;-2.906;2023-12-20T09:17:43;102496.13;;;9.94;100.00
70370;BME280;57790;51.356;-2.906;2023-12-20T09:20:44;102492.63;;;9.94;100.00
70370;BME280;57790;51.356;-2.906;2023-12-20T09:23:44;102488.03;;;9.96;100.00
70370;BME280;57790;51.356;-2.906;2023-12-20T09:26:45;102473.84;;;9.97;100.00
70370;BME280;57790;51.356;-2.906;2023-12-20T09:29:45;102469.06;;;10.02;100.00
70370;BME280;57790;51.356;-2.906;2023-12-20T09:32:45;102480.38;;;10.04;100.00
70370;BME280;57790;51.356;-2.906;2023-12-20T09:35:46;102469.06;;;10.02;100.00
70370;BME280;57790;51.356;-2.906;2023-12-20T09:38:47;102461.00;;;10.03;100.00
70370;BME280;57790;51.356;-2.906;2023-12-20T09:42:02;102466.91;;;10.07;100.00
70370;BME280;57790;51.356;-2.906;2023-12-20T09:45:03;102461.59;;;10.07;100.00
70370;BME280;57790;51.356;-2.906;2023-12-20T09:48:07;102456.28;;;10.07;100.00
70370;BME280;57790;51.356;-2.906;2023-12-20T09:51:07;102452.81;;;10.06;100.00
70370;BME280;57790;51.356;-2.906;2023-12-20T09:54:09;102461.47;;;10.08;100.00
70370;BME280;57790;51.356;-2.906;2023-12-20T09:57:09;102464.84;;;10.10;100.00
70370;BME280;57790;51.356;-2.906;2023-12-20T10:00:11;102469.09;;;10.13;100.00
70370;BME280;57790;51.356;-2.906;2023-12-20T10:03:12;102477.13;;;10.11;100.00
70370;BME280;57790;51.356;-2.906;2023-12-20T10:06:14;102469.09;;;10.13;100.00
70370;BME280;57790;51.356;-2.906;2023-12-20T10:09:15;102493.44;;;10.18;100.00
70370;BME280;57790;51.356;-2.906;2023-12-20T10:12:15;102478.72;;;10.14;100.00
70370;BME280;57790;51.356;-2.906;2023-12-20T10:15:15;102475.84;;;10.17;100.00
70370;BME280;57790;51.356;-2.906;2023-12-20T10:18:16;102471.25;;;10.19;100.00
70370;BME280;57790;51.356;-2.906;2023-12-20T10:21:17;102485.28;;;10.21;100.00
70370;BME280;57790;51.356;-2.906;2023-12-20T10:24:18;102486.00;;;10.23;100.00
70370;BME280;57790;51.356;-2.906;2023-12-20T10:27:18;102472.94;;;10.20;100.00
70370;BME280;57790;51.356;-2.906;2023-12-20T10:30:21;102466.28;;;10.27;100.00
70370;BME280;57790;51.356;-2.906;2023-12-20T10:33:28;102478.66;;;10.27;100.00
70370;BME280;57790;51.356;-2.906;2023-12-20T10:36:30;102481.53;;;10.24;100.00
70370;BME280;57790;51.356;-2.906;2023-12-20T10:39:31;102470.69;;;10.27;100.00
70370;BME280;57790;51.356;-2.906;2023-12-20T10:42:32;102453.72;;;10.29;100.00
70370;BME280;57790;51.356;-2.906;2023-12-20T10:45:36;102424.22;;;10.34;100.00
70370;BME280;57790;51.356;-2.906;2023-12-20T10:48:38;102399.75;;;10.30;100.00
70370;BME280;57790;51.356;-2.906;2023-12-20T10:51:39;102393.25;;;10.34;100.00
70370;BME280;57790;51.356;-2.906;2023-12-20T10:54:40;102393.97;;;10.36;100.00
70370;BME280;57790;51.356;-2.906;2023-12-20T10:57:42;102394.69;;;10.38;100.00
70370;BME280;57790;51.356;-2.906;2023-12-20T11:00:44;102383.63;;;10.45;100.00
70370;BME280;57790;51.356;-2.906;2023-12-20T11:03:51;102373.00;;;10.45;100.00
70370;BME280;57790;51.356;-2.906;2023-12-20T11:07:01;102368.66;;;10.43;100.00
70370;BME280;57790;51.356;-2.906;2023-12-20T11:10:25;102366.13;;;10.53;100.00
70370;BME280;57790;51.356;-2.906;2023-12-20T11:13:31;102360.59;;;10.56;100.00
70370;BME280;57790;51.356;-2.906;2023-12-20T11:16:33;102350.81;;;10.57;100.00
70370;BME280;57790;51.356;-2.906;2023-12-20T11:19:36;102351.28;;;10.62;100.00
70370;BME280;57790;51.356;-2.906;2023-12-20T11:22:36;102340.81;;;10.60;100.00
70370;BME280;57790;51.356;-2.906;2023-12-20T11:25:54;102342.38;;;10.63;100.00
70370;BME280;57790;51.356;-2.906;2023-12-20T11:32:34;102324.38;;;10.66;100.00
70370;BME280;57790;51.356;-2.906;2023-12-20T11:35:35;102319.78;;;10.68;100.00
70370;BME280;57790;51.356;-2.906;2023-12-20T11:38:37;102321.59;;;10.68;100.00
70370;BME280;57790;51.356;-2.906;2023-12-20T11:41:37;102298.44;;;10.70;100.00
70370;BME280;57790;51.356;-2.906;2023-12-20T11:44:38;102303.53;;;10.73;100.00
70370;BME280;57790;51.356;-2.906;2023-12-20T11:47:38;102300.88;;;10.73;100.00
70370;BME280;57790;51.356;-2.906;2023-12-20T11:50:39;102304.84;;;10.67;100.00
70370;BME280;57790;51.356;-2.906;2023-12-20T11:53:40;102289.44;;;10.72;100.00
70370;BME280;57790;51.356;-2.906;2023-12-20T11:56:42;102292.66;;;10.76;100.00
70370;BME280;57790;51.356;-2.906;2023-12-20T11:59:43;102294.09;;;10.80;100.00
70370;BME280;57790;51.356;-2.906;2023-12-20T12:02:43;102292.75;;;10.86;100.00
70370;BME280;57790;51.356;-2.906;2023-12-20T12:05:47;102282.16;;;10.86;100.00
70370;BME280;57790;51.356;-2.906;2023-12-20T12:08:47;102267.66;;;10.90;100.00
70370;BME280;57790;51.356;-2.906;2023-12-20T12:11:48;102257.75;;;10.92;100.00
70370;BME280;57790;51.356;-2.906;2023-12-20T12:14:49;102243.78;;;10.90;100.00
70370;BME280;57790;51.356;-2.906;2023-12-20T12:17:53;102232.06;;;10.92;100.00
70370;BME280;57790;51.356;-2.906;2023-12-20T12:21:00;102223.56;;;10.98;100.00
70370;BME280;57790;51.356;-2.906;2023-12-20T12:24:09;102208.25;;;11.02;100.00
70370;BME280;57790;51.356;-2.906;2023-12-20T12:27:11;102211.53;;;10.94;100.00
70370;BME280;57790;51.356;-2.906;2023-12-20T12:30:12;102209.38;;;10.99;100.00
70370;BME280;57790;51.356;-2.906;2023-12-20T12:33:13;102211.06;;;11.00;100.00
70370;BME280;57790;51.356;-2.906;2023-12-20T12:36:14;102213.72;;;11.00;100.00
70370;BME280;57790;51.356;-2.906;2023-12-20T12:39:17;102216.59;;;10.97;100.00
70370;BME280;57790;51.356;-2.906;2023-12-20T12:42:18;102226.22;;;10.98;100.00
70370;BME280;57790;51.356;-2.906;2023-12-20T12:45:18;102234.19;;;10.98;100.00
70370;BME280;57790;51.356;-2.906;2023-12-20T12:48:18;102224.75;;;11.06;100.00
70370;BME280;57790;51.356;-2.906;2023-12-20T12:51:19;102210.25;;;11.10;100.00
70370;BME280;57790;51.356;-2.906;2023-12-20T12:54:19;102211.50;;;11.06;100.00
70370;BME280;57790;51.356;-2.906;2023-12-20T12:57:20;102204.94;;;11.10;100.00
70370;BME280;57790;51.356;-2.906;2023-12-20T13:00:20;102229.81;;;11.09;100.00
70370;BME280;57790;51.356;-2.906;2023-12-20T13:03:21;102227.72;;;11.12;100.00
70370;BME280;57790;51.356;-2.906;2023-12-20T13:06:22;102194.41;;;11.19;100.00
70370;BME280;57790;51.356;-2.906;2023-12-20T13:09:23;102195.50;;;11.17;100.00
70370;BME280;57790;51.356;-2.906;2023-12-20T13:12:23;102182.81;;;11.20;100.00
70370;BME280;57790;51.356;-2.906;2023-12-20T13:15:24;102186.03;;;11.24;100.00
70370;BME280;57790;51.356;-2.906;2023-12-20T13:18:24;102190.06;;;11.18;100.00
70370;BME280;57790;51.356;-2.906;2023-12-20T13:21:24;102193.69;;;11.17;100.00
70370;BME280;57790;51.356;-2.906;2023-12-20T13:24:25;102184.63;;;11.20;100.00
70370;BME280;57790;51.356;-2.906;2023-12-20T13:27:25;102185.19;;;11.23;100.00
70370;BME280;57790;51.356;-2.906;2023-12-20T13:30:26;102185.78;;;11.27;100.00
70370;BME280;57790;51.356;-2.906;2023-12-20T13:33:26;102177.63;;;11.19;100.00
70370;BME280;57790;51.356;-2.906;2023-12-20T13:36:26;102171.09;;;11.23;100.00
70370;BME280;57790;51.356;-2.906;2023-12-20T13:39:27;102152.38;;;11.24;100.00
70370;BME280;57790;51.356;-2.906;2023-12-20T13:42:27;102155.44;;;11.20;100.00
70370;BME280;57790;51.356;-2.906;2023-12-20T13:45:27;102150.25;;;11.18;100.00
70370;BME280;57790;51.356;-2.906;2023-12-20T13:48:28;102136.97;;;11.18;100.00
70370;BME280;57790;51.356;-2.906;2023-12-20T13:51:28;102126.78;;;11.23;100.00
70370;BME280;57790;51.356;-2.906;2023-12-20T13:54:28;102129.03;;;11.18;100.00
70370;BME280;57790;51.356;-2.906;2023-12-20T13:57:29;102132.66;;;11.17;100.00
70370;BME280;57790;51.356;-2.906;2023-12-20T14:00:29;102156.97;;;11.22;100.00
70370;BME280;57790;51.356;-2.906;2023-12-20T14:03:30;102128.47;;;11.24;100.00
70370;BME280;57790;51.356;-2.906;2023-12-20T14:06:31;102129.31;;;11.25;100.00
70370;BME280;57790;51.356;-2.906;2023-12-20T14:09:31;102121.34;;;11.25;100.00
70370;BME280;57790;51.356;-2.906;2023-12-20T14:12:32;102111.44;;;11.27;100.00
70370;BME280;57790;51.356;-2.906;2023-12-20T14:15:36;102099.69;;;11.20;100.00
70370;BME280;57790;51.356;-2.906;2023-12-20T14:18:37;102086.41;;;11.20;100.00
70370;BME280;57790;51.356;-2.906;2023-12-20T14:21:37;102096.91;;;11.21;100.00
70370;BME280;57790;51.356;-2.906;2023-12-20T14:24:38;102075.25;;;11.26;100.00
70370;BME280;57790;51.356;-2.906;2023-12-20T14:27:39;102088.53;;;11.26;100.00
70370;BME280;57790;51.356;-2.906;2023-12-20T14:30:40;102089.91;;;11.20;100.00
70370;BME280;57790;51.356;-2.906;2023-12-20T14:33:40;102083.47;;;11.23;100.00
70370;BME280;57790;51.356;-2.906;2023-12-20T14:36:42;102080.00;;;11.22;100.00
70370;BME280;57790;51.356;-2.906;2023-12-20T14:39:42;102060.44;;;11.23;100.00
70370;BME280;57790;51.356;-2.906;2023-12-20T14:42:43;102064.91;;;11.23;100.00
70370;BME280;57790;51.356;-2.906;2023-12-20T14:45:44;102063.09;;;11.23;100.00
70370;BME280;57790;51.356;-2.906;2023-12-20T14:48:45;102080.97;;;11.21;100.00
70370;BME280;57790;51.356;-2.906;2023-12-20T14:51:45;102079.84;;;11.24;100.00
70370;BME280;57790;51.356;-2.906;2023-12-20T14:54:48;102073.44;;;11.26;100.00
70370;BME280;57790;51.356;-2.906;2023-12-20T14:57:48;102076.94;;;11.27;100.00
70370;BME280;57790;51.356;-2.906;2023-12-20T15:00:49;102069.94;;;11.26;100.00
70370;BME280;57790;51.356;-2.906;2023-12-20T15:03:50;102083.22;;;11.26;100.00
70370;BME280;57790;51.356;-2.906;2023-12-20T15:06:50;102079.59;;;11.27;100.00
70370;BME280;57790;51.356;-2.906;2023-12-20T15:09:50;102077.91;;;11.26;100.00
70370;BME280;57790;51.356;-2.906;2023-12-20T15:12:51;102067.03;;;11.29;100.00
70370;BME280;57790;51.356;-2.906;2023-12-20T15:15:51;102068.97;;;11.27;100.00
70370;BME280;57790;51.356;-2.906;2023-12-20T15:18:52;102061.13;;;11.25;100.00
70370;BME280;57790;51.356;-2.906;2023-12-20T15:21:53;102059.47;;;11.24;100.00
70370;BME280;57790;51.356;-2.906;2023-12-20T15:24:54;102051.50;;;11.24;100.00
70370;BME280;57790;51.356;-2.906;2023-12-20T15:27:55;102047.03;;;11.25;100.00
70370;BME280;57790;51.356;-2.906;2023-12-20T15:30:55;102043.25;;;11.27;100.00